sensor_id;sensor_type;location;lat;lon;timestamp;P1;durP1;ratioP1;P2;durP2;ratioP2
1537;SDS011;12022;52.266;10.522;2022-12-08T11:32:21;12.80;;;12.60;;
1537;SDS011;12022;52.266;10.522;2022-12-08T11:35:12;35.27;;;34.37;;
1537;SDS011;12022;52.266;10.522;2022-12-08T11:37:42;42.83;;;41.63;;
1537;SDS011;12022;52.266;10.522;2022-12-08T11:40:33;15.10;;;14.80;;
1537;SDS011;12022;52.266;10.522;2022-12-08T11:43:12;29.53;;;28.83;;
1537;SDS011;12022;52.266;10.522;2022-12-08T11:45:44;19.33;;;18.93;;
1537;SDS011;12022;52.266;10.522;2022-12-08T11:48:16;17.37;;;17.07;;
1537;SDS011;12022;52.266;10.522;2022-12-08T11:50:52;34.47;;;33.60;;
1537;SDS011;12022;52.266;10.522;2022-12-08T11:56:18;17.37;;;17.07;;
1537;SDS011;12022;52.266;10.522;2022-12-08T11:58:52;30.27;;;29.43;;
1537;SDS011;12022;52.266;10.522;2022-12-08T12:01:47;36.00;;;35.10;;
1537;SDS011;12022;52.266;10.522;2022-12-08T12:09:26;25.67;;;25.07;;
1537;SDS011;12022;52.266;10.522;2022-12-08T12:12:18;11.43;;;11.23;;
1537;SDS011;12022;52.266;10.522;2022-12-08T12:23:07;24.57;;;23.97;;
1537;SDS011;12022;52.266;10.522;2022-12-08T12:25:45;18.90;;;18.50;;
1537;SDS011;12022;52.266;10.522;2022-12-08T12:28:23;12.30;;;12.10;;
1537;SDS011;12022;52.266;10.522;2022-12-08T12:31:00;18.47;;;18.03;;
1537;SDS011;12022;52.266;10.522;2022-12-08T12:33:31;17.87;;;17.47;;
1537;SDS011;12022;52.266;10.522;2022-12-08T12:36:01;15.27;;;14.97;;
1537;SDS011;12022;52.266;10.522;2022-12-08T12:38:37;14.90;;;14.60;;
1537;SDS011;12022;52.266;10.522;2022-12-08T12:59:46;6.37;;;6.27;;
1537;SDS011;12022;52.266;10.522;2022-12-08T13:05:16;4.67;;;4.67;;
1537;SDS011;12022;52.266;10.522;2022-12-08T13:10:33;10.03;;;9.93;;
1537;SDS011;12022;52.266;10.522;2022-12-08T13:15:38;8.50;;;8.40;;
1537;SDS011;12022;52.266;10.522;2022-12-08T13:18:17;6.77;;;6.67;;
1537;SDS011;12022;52.266;10.522;2022-12-08T13:20:59;3.57;;;3.57;;
1537;SDS011;12022;52.266;10.522;2022-12-08T13:42:06;6.50;;;6.40;;
1537;SDS011;12022;52.266;10.522;2022-12-08T13:48:02;8.13;;;8.03;;
1537;SDS011;12022;52.266;10.522;2022-12-08T13:53:58;10.37;;;10.27;;
1537;SDS011;12022;52.266;10.522;2022-12-08T13:56:50;9.23;;;9.13;;
1537;SDS011;12022;52.266;10.522;2022-12-08T13:59:35;15.60;;;15.30;;
1537;SDS011;12022;52.266;10.522;2022-12-08T14:02:32;15.00;;;14.70;;
1537;SDS011;12022;52.266;10.522;2022-12-08T14:04:59;14.93;;;14.63;;
1537;SDS011;12022;52.266;10.522;2022-12-08T14:07:44;10.73;;;10.60;;
1537;SDS011;12022;52.266;10.522;2022-12-08T14:10:22;8.47;;;8.37;;
1537;SDS011;12022;52.266;10.522;2022-12-08T14:12:56;7.97;;;7.87;;
1537;SDS011;12022;52.266;10.522;2022-12-08T14:15:26;10.63;;;10.47;;
1537;SDS011;12022;52.266;10.522;2022-12-08T14:18:01;7.87;;;7.77;;
1537;SDS011;12022;52.266;10.522;2022-12-08T14:20:29;12.40;;;12.20;;
1537;SDS011;12022;52.266;10.522;2022-12-08T14:23:07;7.73;;;7.63;;
1537;SDS011;12022;52.266;10.522;2022-12-08T14:25:35;7.10;;;7.00;;
1537;SDS011;12022;52.266;10.522;2022-12-08T14:28:04;8.90;;;8.80;;
1537;SDS011;12022;52.266;10.522;2022-12-08T14:30:33;9.30;;;9.20;;
1537;SDS011;12022;52.266;10.522;2022-12-08T14:33:03;6.50;;;6.40;;
1537;SDS011;12022;52.266;10.522;2022-12-08T14:35:34;11.07;;;10.87;;
1537;SDS011;12022;52.266;10.522;2022-12-08T14:56:25;7.10;;;7.00;;
1537;SDS011;12022;52.266;10.522;2022-12-08T14:59:04;8.90;;;8.80;;
1537;SDS011;12022;52.266;10.522;2022-12-08T15:01:34;6.93;;;6.83;;
1537;SDS011;12022;52.266;10.522;2022-12-08T15:04:36;5.90;;;5.80;;
1537;SDS011;12022;52.266;10.522;2022-12-08T15:07:06;5.63;;;5.53;;
1537;SDS011;12022;52.266;10.522;2022-12-08T15:09:45;6.40;;;6.30;;
1537;SDS011;12022;52.266;10.522;2022-12-08T15:12:21;8.70;;;8.60;;
1537;SDS011;12022;52.266;10.522;2022-12-08T15:14:57;5.43;;;5.37;;
1537;SDS011;12022;52.266;10.522;2022-12-08T15:17:33;5.57;;;5.47;;
1537;SDS011;12022;52.266;10.522;2022-12-08T15:23:09;8.00;;;7.90;;
1537;SDS011;12022;52.266;10.522;2022-12-08T15:25:58;7.13;;;7.03;;
1537;SDS011;12022;52.266;10.522;2022-12-08T15:28:26;7.37;;;7.27;;
1537;SDS011;12022;52.266;10.522;2022-12-08T15:30:56;21.07;;;20.57;;
1537;SDS011;12022;52.266;10.522;2022-12-08T15:33:23;6.93;;;6.83;;
1537;SDS011;12022;52.266;10.522;2022-12-08T15:35:51;6.10;;;6.00;;
1537;SDS011;12022;52.266;10.522;2022-12-08T15:38:19;7.20;;;7.10;;
1537;SDS011;12022;52.266;10.522;2022-12-08T15:40:52;7.10;;;7.00;;
1537;SDS011;12022;52.266;10.522;2022-12-08T15:43:20;8.53;;;8.43;;
1537;SDS011;12022;52.266;10.522;2022-12-08T15:45:48;8.07;;;7.97;;
1537;SDS011;12022;52.266;10.522;2022-12-08T15:48:27;10.80;;;10.60;;
1537;SDS011;12022;52.266;10.522;2022-12-08T15:50:56;7.70;;;7.60;;
1537;SDS011;12022;52.266;10.522;2022-12-08T15:53:23;7.23;;;7.13;;
1537;SDS011;12022;52.266;10.522;2022-12-08T15:55:51;6.73;;;6.63;;
1537;SDS011;12022;52.266;10.522;2022-12-08T15:58:40;7.07;;;6.97;;
1537;SDS011;12022;52.266;10.522;2022-12-08T16:01:22;7.60;;;7.50;;
1537;SDS011;12022;52.266;10.522;2022-12-08T16:03:49;6.80;;;6.70;;
1537;SDS011;12022;52.266;10.522;2022-12-08T16:06:37;7.27;;;7.17;;
1537;SDS011;12022;52.266;10.522;2022-12-08T16:09:28;8.03;;;7.93;;
1537;SDS011;12022;52.266;10.522;2022-12-08T16:11:58;8.30;;;8.20;;
1537;SDS011;12022;52.266;10.522;2022-12-08T16:14:44;6.00;;;5.90;;
1537;SDS011;12022;52.266;10.522;2022-12-08T16:17:31;8.17;;;8.07;;
1537;SDS011;12022;52.266;10.522;2022-12-08T16:19:59;9.30;;;9.20;;
1537;SDS011;12022;52.266;10.522;2022-12-08T16:22:27;10.10;;;10.00;;
1537;SDS011;12022;52.266;10.522;2022-12-08T16:25:17;5.47;;;5.37;;
1537;SDS011;12022;52.266;10.522;2022-12-08T16:27:47;7.53;;;7.43;;
1537;SDS011;12022;52.266;10.522;2022-12-08T16:30:31;6.80;;;6.70;;
1537;SDS011;12022;52.266;10.522;2022-12-08T16:32:58;9.90;;;9.80;;
1537;SDS011;12022;52.266;10.522;2022-12-08T16:35:25;8.47;;;8.37;;
1537;SDS011;12022;52.266;10.522;2022-12-08T16:37:55;7.47;;;7.37;;
1537;SDS011;12022;52.266;10.522;2022-12-08T16:40:22;6.83;;;6.73;;
1537;SDS011;12022;52.266;10.522;2022-12-08T16:42:49;6.97;;;6.87;;
1537;SDS011;12022;52.266;10.522;2022-12-08T16:45:17;5.87;;;5.77;;
1537;SDS011;12022;52.266;10.522;2022-12-08T16:47:49;6.43;;;6.33;;
1537;SDS011;12022;52.266;10.522;2022-12-08T16:50:22;6.53;;;6.43;;
1537;SDS011;12022;52.266;10.522;2022-12-08T16:52:49;5.53;;;5.43;;
1537;SDS011;12022;52.266;10.522;2022-12-08T16:55:28;6.53;;;6.43;;
1537;SDS011;12022;52.266;10.522;2022-12-08T16:57:55;7.70;;;7.60;;
1537;SDS011;12022;52.266;10.522;2022-12-08T17:00:23;6.30;;;6.20;;
1537;SDS011;12022;52.266;10.522;2022-12-08T17:02:52;8.27;;;8.17;;
1537;SDS011;12022;52.266;10.522;2022-12-08T17:05:21;7.60;;;7.50;;
1537;SDS011;12022;52.266;10.522;2022-12-08T17:07:50;7.27;;;7.17;;
1537;SDS011;12022;52.266;10.522;2022-12-08T17:10:21;10.00;;;9.90;;
1537;SDS011;12022;52.266;10.522;2022-12-08T17:12:53;9.43;;;9.33;;
1537;SDS011;12022;52.266;10.522;2022-12-08T17:15:24;7.30;;;7.20;;
1537;SDS011;12022;52.266;10.522;2022-12-08T17:17:51;8.70;;;8.60;;
1537;SDS011;12022;52.266;10.522;2022-12-08T17:20:19;10.87;;;10.77;;
1537;SDS011;12022;52.266;10.522;2022-12-08T17:22:48;12.57;;;12.37;;
1537;SDS011;12022;52.266;10.522;2022-12-08T17:25:15;11.33;;;11.13;;
1537;SDS011;12022;52.266;10.522;2022-12-08T17:27:42;8.70;;;8.60;;
1537;SDS011;12022;52.266;10.522;2022-12-08T17:30:09;8.23;;;8.13;;
1537;SDS011;12022;52.266;10.522;2022-12-08T17:32:41;8.67;;;8.57;;
1537;SDS011;12022;52.266;10.522;2022-12-08T17:35:08;7.77;;;7.67;;
1537;SDS011;12022;52.266;10.522;2022-12-08T17:37:36;9.00;;;8.90;;
1537;SDS011;12022;52.266;10.522;2022-12-08T17:40:03;11.03;;;10.83;;
1537;SDS011;12022;52.266;10.522;2022-12-08T17:42:31;9.77;;;9.67;;
1537;SDS011;12022;52.266;10.522;2022-12-08T17:44:58;11.50;;;11.30;;
1537;SDS011;12022;52.266;10.522;2022-12-08T17:47:25;10.70;;;10.60;;
1537;SDS011;12022;52.266;10.522;2022-12-08T17:49:52;9.27;;;9.17;;
1537;SDS011;12022;52.266;10.522;2022-12-08T17:52:21;10.23;;;10.13;;
1537;SDS011;12022;52.266;10.522;2022-12-08T17:54:51;10.20;;;10.10;;
1537;SDS011;12022;52.266;10.522;2022-12-08T17:57:18;9.10;;;9.00;;
1537;SDS011;12022;52.266;10.522;2022-12-08T17:59:47;8.47;;;8.37;;
1537;SDS011;12022;52.266;10.522;2022-12-08T18:02:14;6.37;;;6.27;;
1537;SDS011;12022;52.266;10.522;2022-12-08T18:04:41;8.87;;;8.77;;
1537;SDS011;12022;52.266;10.522;2022-12-08T18:07:11;7.80;;;7.70;;
1537;SDS011;12022;52.266;10.522;2022-12-08T18:09:38;9.50;;;9.40;;
1537;SDS011;12022;52.266;10.522;2022-12-08T18:12:05;8.60;;;8.50;;
1537;SDS011;12022;52.266;10.522;2022-12-08T18:14:33;8.07;;;7.97;;
1537;SDS011;12022;52.266;10.522;2022-12-08T18:17:00;8.07;;;7.97;;
1537;SDS011;12022;52.266;10.522;2022-12-08T18:19:28;10.30;;;10.20;;
1537;SDS011;12022;52.266;10.522;2022-12-08T18:21:55;14.03;;;13.80;;
1537;SDS011;12022;52.266;10.522;2022-12-08T18:24:22;10.67;;;10.53;;
1537;SDS011;12022;52.266;10.522;2022-12-08T18:26:50;11.13;;;10.93;;
1537;SDS011;12022;52.266;10.522;2022-12-08T18:29:18;12.63;;;12.43;;
1537;SDS011;12022;52.266;10.522;2022-12-08T18:31:46;9.03;;;8.93;;
1537;SDS011;12022;52.266;10.522;2022-12-08T18:34:14;11.27;;;11.07;;
1537;SDS011;12022;52.266;10.522;2022-12-08T18:36:41;10.77;;;10.57;;
1537;SDS011;12022;52.266;10.522;2022-12-08T18:39:19;8.50;;;8.40;;
1537;SDS011;12022;52.266;10.522;2022-12-08T18:41:49;11.70;;;11.50;;
1537;SDS011;12022;52.266;10.522;2022-12-08T18:44:17;14.20;;;14.00;;
1537;SDS011;12022;52.266;10.522;2022-12-08T18:46:44;14.20;;;14.00;;
1537;SDS011;12022;52.266;10.522;2022-12-08T18:49:11;12.27;;;12.07;;
1537;SDS011;12022;52.266;10.522;2022-12-08T18:51:41;10.63;;;10.50;;
1537;SDS011;12022;52.266;10.522;2022-12-08T18:54:09;9.50;;;9.40;;
1537;SDS011;12022;52.266;10.522;2022-12-08T18:56:36;9.80;;;9.70;;
1537;SDS011;12022;52.266;10.522;2022-12-08T18:59:04;9.10;;;9.00;;
1537;SDS011;12022;52.266;10.522;2022-12-08T19:01:34;8.30;;;8.20;;
1537;SDS011;12022;52.266;10.522;2022-12-08T19:04:03;7.03;;;6.93;;
1537;SDS011;12022;52.266;10.522;2022-12-08T19:06:52;6.27;;;6.17;;
1537;SDS011;12022;52.266;10.522;2022-12-08T19:09:19;7.70;;;7.60;;
1537;SDS011;12022;52.266;10.522;2022-12-08T19:11:46;6.00;;;5.90;;
1537;SDS011;12022;52.266;10.522;2022-12-08T19:14:13;6.60;;;6.50;;
1537;SDS011;12022;52.266;10.522;2022-12-08T19:16:40;6.53;;;6.43;;
1537;SDS011;12022;52.266;10.522;2022-12-08T19:19:07;16.20;;;15.90;;
1537;SDS011;12022;52.266;10.522;2022-12-08T19:21:34;9.27;;;9.17;;
1537;SDS011;12022;52.266;10.522;2022-12-08T19:24:11;6.50;;;6.40;;
1537;SDS011;12022;52.266;10.522;2022-12-08T19:26:38;7.60;;;7.50;;
1537;SDS011;12022;52.266;10.522;2022-12-08T19:29:05;8.77;;;8.67;;
1537;SDS011;12022;52.266;10.522;2022-12-08T19:31:32;10.27;;;10.17;;
1537;SDS011;12022;52.266;10.522;2022-12-08T19:33:59;9.13;;;9.03;;
1537;SDS011;12022;52.266;10.522;2022-12-08T19:36:26;7.23;;;7.13;;
1537;SDS011;12022;52.266;10.522;2022-12-08T19:38:56;7.83;;;7.73;;
1537;SDS011;12022;52.266;10.522;2022-12-08T19:41:42;8.67;;;8.57;;
1537;SDS011;12022;52.266;10.522;2022-12-08T19:44:28;15.20;;;14.90;;
1537;SDS011;12022;52.266;10.522;2022-12-08T19:47:14;13.03;;;12.83;;
1537;SDS011;12022;52.266;10.522;2022-12-08T19:49:41;10.83;;;10.63;;
1537;SDS011;12022;52.266;10.522;2022-12-08T19:52:08;9.40;;;9.30;;
1537;SDS011;12022;52.266;10.522;2022-12-08T19:54:35;10.77;;;10.63;;
1537;SDS011;12022;52.266;10.522;2022-12-08T19:57:02;10.20;;;10.10;;
1537;SDS011;12022;52.266;10.522;2022-12-08T19:59:29;11.50;;;11.30;;
1537;SDS011;12022;52.266;10.522;2022-12-08T20:01:57;10.10;;;10.00;;
1537;SDS011;12022;52.266;10.522;2022-12-08T20:04:25;12.87;;;12.67;;
1537;SDS011;12022;52.266;10.522;2022-12-08T20:06:53;11.00;;;10.80;;
1537;SDS011;12022;52.266;10.522;2022-12-08T20:09:22;7.73;;;7.63;;
1537;SDS011;12022;52.266;10.522;2022-12-08T20:11:49;9.53;;;9.43;;
1537;SDS011;12022;52.266;10.522;2022-12-08T20:14:20;9.80;;;9.70;;
1537;SDS011;12022;52.266;10.522;2022-12-08T20:16:49;8.73;;;8.63;;
1537;SDS011;12022;52.266;10.522;2022-12-08T20:19:16;7.20;;;7.10;;
1537;SDS011;12022;52.266;10.522;2022-12-08T20:21:43;7.63;;;7.53;;
1537;SDS011;12022;52.266;10.522;2022-12-08T20:24:11;8.10;;;8.00;;
1537;SDS011;12022;52.266;10.522;2022-12-08T20:26:38;9.33;;;9.23;;
1537;SDS011;12022;52.266;10.522;2022-12-08T20:29:05;8.77;;;8.67;;
1537;SDS011;12022;52.266;10.522;2022-12-08T20:31:32;6.80;;;6.70;;
1537;SDS011;12022;52.266;10.522;2022-12-08T20:33:59;10.93;;;10.73;;
1537;SDS011;12022;52.266;10.522;2022-12-08T20:36:27;7.57;;;7.47;;
1537;SDS011;12022;52.266;10.522;2022-12-08T20:38:54;12.33;;;12.13;;
1537;SDS011;12022;52.266;10.522;2022-12-08T20:41:21;9.47;;;9.37;;
1537;SDS011;12022;52.266;10.522;2022-12-08T20:43:49;7.50;;;7.40;;
1537;SDS011;12022;52.266;10.522;2022-12-08T20:46:17;10.17;;;10.07;;
1537;SDS011;12022;52.266;10.522;2022-12-08T20:48:46;9.50;;;9.40;;
1537;SDS011;12022;52.266;10.522;2022-12-08T20:51:14;8.57;;;8.47;;
1537;SDS011;12022;52.266;10.522;2022-12-08T20:53:42;8.07;;;7.97;;
1537;SDS011;12022;52.266;10.522;2022-12-08T20:56:17;5.80;;;5.70;;
1537;SDS011;12022;52.266;10.522;2022-12-08T20:58:45;5.43;;;5.40;;
1537;SDS011;12022;52.266;10.522;2022-12-08T21:01:14;6.60;;;6.50;;
1537;SDS011;12022;52.266;10.522;2022-12-08T21:03:43;6.70;;;6.60;;
1537;SDS011;12022;52.266;10.522;2022-12-08T21:06:11;5.70;;;5.60;;
1537;SDS011;12022;52.266;10.522;2022-12-08T21:08:39;5.50;;;5.40;;
1537;SDS011;12022;52.266;10.522;2022-12-08T21:11:07;8.07;;;7.97;;
1537;SDS011;12022;52.266;10.522;2022-12-08T21:13:35;5.87;;;5.77;;
1537;SDS011;12022;52.266;10.522;2022-12-08T21:16:04;5.23;;;5.23;;
1537;SDS011;12022;52.266;10.522;2022-12-08T21:18:34;6.80;;;6.70;;
1537;SDS011;12022;52.266;10.522;2022-12-08T21:21:07;6.17;;;6.07;;
1537;SDS011;12022;52.266;10.522;2022-12-08T21:23:36;7.57;;;7.47;;
1537;SDS011;12022;52.266;10.522;2022-12-08T21:26:08;8.73;;;8.63;;
1537;SDS011;12022;52.266;10.522;2022-12-08T21:28:36;8.73;;;8.63;;
1537;SDS011;12022;52.266;10.522;2022-12-08T21:31:11;10.23;;;10.13;;
1537;SDS011;12022;52.266;10.522;2022-12-08T21:33:40;8.73;;;8.63;;
1537;SDS011;12022;52.266;10.522;2022-12-08T21:36:12;6.40;;;6.30;;
1537;SDS011;12022;52.266;10.522;2022-12-08T21:38:42;7.43;;;7.33;;
1537;SDS011;12022;52.266;10.522;2022-12-08T21:41:10;8.07;;;7.97;;
1537;SDS011;12022;52.266;10.522;2022-12-08T21:43:40;7.07;;;6.97;;
1537;SDS011;12022;52.266;10.522;2022-12-08T21:46:15;9.40;;;9.30;;
1537;SDS011;12022;52.266;10.522;2022-12-08T21:48:44;9.10;;;9.00;;
1537;SDS011;12022;52.266;10.522;2022-12-08T21:51:12;10.57;;;10.43;;
1537;SDS011;12022;52.266;10.522;2022-12-08T21:53:43;10.67;;;10.57;;
1537;SDS011;12022;52.266;10.522;2022-12-08T21:56:13;7.83;;;7.73;;
1537;SDS011;12022;52.266;10.522;2022-12-08T21:58:40;9.43;;;9.33;;
1537;SDS011;12022;52.266;10.522;2022-12-08T22:01:07;9.07;;;8.97;;
1537;SDS011;12022;52.266;10.522;2022-12-08T22:03:37;8.73;;;8.63;;
1537;SDS011;12022;52.266;10.522;2022-12-08T22:06:06;9.20;;;9.10;;
1537;SDS011;12022;52.266;10.522;2022-12-08T22:11:36;7.23;;;7.13;;
1537;SDS011;12022;52.266;10.522;2022-12-08T22:14:10;9.30;;;9.20;;
1537;SDS011;12022;52.266;10.522;2022-12-08T22:16:40;8.23;;;8.13;;
1537;SDS011;12022;52.266;10.522;2022-12-08T22:19:08;7.00;;;6.90;;
1537;SDS011;12022;52.266;10.522;2022-12-08T22:21:36;5.70;;;5.60;;
1537;SDS011;12022;52.266;10.522;2022-12-08T22:24:03;8.23;;;8.13;;
1537;SDS011;12022;52.266;10.522;2022-12-08T22:26:32;7.43;;;7.33;;
1537;SDS011;12022;52.266;10.522;2022-12-08T22:28:59;5.80;;;5.70;;
1537;SDS011;12022;52.266;10.522;2022-12-08T22:31:27;4.70;;;4.70;;
1537;SDS011;12022;52.266;10.522;2022-12-08T22:33:55;9.23;;;8.83;;
1537;SDS011;12022;52.266;10.522;2022-12-08T22:36:25;4.63;;;4.63;;
1537;SDS011;12022;52.266;10.522;2022-12-08T22:38:53;8.73;;;8.30;;
1537;SDS011;12022;52.266;10.522;2022-12-08T22:41:21;5.80;;;5.70;;
1537;SDS011;12022;52.266;10.522;2022-12-08T22:43:48;5.20;;;5.20;;
1537;SDS011;12022;52.266;10.522;2022-12-08T22:51:51;7.97;;;7.87;;
1537;SDS011;12022;52.266;10.522;2022-12-08T22:54:18;10.97;;;10.80;;
1537;SDS011;12022;52.266;10.522;2022-12-08T22:56:46;6.23;;;6.13;;
1537;SDS011;12022;52.266;10.522;2022-12-08T22:59:13;7.60;;;7.50;;
1537;SDS011;12022;52.266;10.522;2022-12-08T23:01:40;5.73;;;5.63;;
1537;SDS011;12022;52.266;10.522;2022-12-08T23:04:08;7.50;;;7.40;;
1537;SDS011;12022;52.266;10.522;2022-12-08T23:06:43;4.67;;;4.67;;
1537;SDS011;12022;52.266;10.522;2022-12-08T23:09:10;5.33;;;5.30;;
1537;SDS011;12022;52.266;10.522;2022-12-08T23:11:37;5.43;;;5.40;;
1537;SDS011;12022;52.266;10.522;2022-12-08T23:14:04;7.30;;;7.20;;
1537;SDS011;12022;52.266;10.522;2022-12-08T23:16:31;6.03;;;5.93;;
1537;SDS011;12022;52.266;10.522;2022-12-08T23:18:58;7.67;;;7.57;;
1537;SDS011;12022;52.266;10.522;2022-12-08T23:21:25;5.57;;;5.47;;
1537;SDS011;12022;52.266;10.522;2022-12-08T23:23:53;6.30;;;6.20;;
1537;SDS011;12022;52.266;10.522;2022-12-08T23:26:21;7.10;;;7.00;;
1537;SDS011;12022;52.266;10.522;2022-12-08T23:28:50;7.50;;;7.40;;
1537;SDS011;12022;52.266;10.522;2022-12-08T23:31:17;6.50;;;6.40;;
1537;SDS011;12022;52.266;10.522;2022-12-08T23:33:45;7.50;;;7.40;;
1537;SDS011;12022;52.266;10.522;2022-12-08T23:36:13;6.33;;;6.23;;
1537;SDS011;12022;52.266;10.522;2022-12-08T23:38:42;6.43;;;6.33;;
1537;SDS011;12022;52.266;10.522;2022-12-08T23:41:11;6.03;;;5.93;;
